Time;durP1;ratioP1;P1;durP2;ratioP2;P2;SDS_P1;SDS_P2;PMS_P1;PMS_P2;Temp;Humidity;BMP_temperature;BMP_pressure;BME280_temperature;BME280_humidity;BME280_pressure;Samples;Min_cycle;Max_cycle;Signal;HPM_P1;HPM_P2
2021/03/22 00:02:00;;;;;;;17.80;3.73;;;;;;;;;;5057645;28;20197;-71
2021/03/22 00:04:26;;;;;;;10.23;4.28;;;;;;;;;;5062337;28;20446;-71
2021/03/22 00:06:52;;;;;;;13.90;3.80;;;;;;;;;;5061293;28;20197;-71
2021/03/22 00:09:18;;;;;;;17.27;4.50;;;;;;;;;;5053836;28;20414;-72
2021/03/22 00:11:44;;;;;;;8.80;4.67;;;;;;;;;;5060727;28;20466;-73
2021/03/22 00:14:10;;;;;;;14.00;4.80;;;;;;;;;;5052793;28;20412;-71
2021/03/22 00:16:36;;;;;;;11.80;4.20;;;;;;;;;;5064845;28;21301;-71
2021/03/22 00:19:02;;;;;;;15.70;4.63;;;;;;;;;;5052638;28;20438;-70
2021/03/22 00:21:28;;;;;;;12.70;3.70;;;;;;;;;;5059236;28;20468;-71
2021/03/22 00:23:54;;;;;;;10.50;3.53;;;;;;;;;;5058921;28;20922;-71
2021/03/22 00:26:19;;;;;;;13.13;3.63;;;;;;;;;;5059364;28;20860;-71
2021/03/22 00:28:45;;;;;;;21.00;5.13;;;;;;;;;;5067801;28;20431;-71
2021/03/22 00:31:13;;;;;;;8.60;4.00;;;;;;;;;;5056684;28;20499;-72
2021/03/22 00:33:39;;;;;;;18.50;3.85;;;;;;;;;;5068886;28;20678;-72
2021/03/22 00:36:06;;;;;;;13.70;3.05;;;;;;;;;;5069526;28;20173;-72
2021/03/22 00:38:32;;;;;;;10.18;3.78;;;;;;;;;;5062531;28;20181;-71
2021/03/22 00:40:58;;;;;;;18.67;3.67;;;;;;;;;;5060667;28;20663;-72
2021/03/22 00:43:25;;;;;;;12.87;3.30;;;;;;;;;;5061152;28;20873;-71
2021/03/22 00:45:54;;;;;;;17.85;4.65;;;;;;;;;;5055681;28;20463;-72
2021/03/22 00:48:21;;;;;;;16.05;4.50;;;;;;;;;;5060255;28;20174;-72
2021/03/22 00:50:47;;;;;;;12.88;3.30;;;;;;;;;;5065034;28;20192;-71
2021/03/22 00:53:14;;;;;;;10.23;3.60;;;;;;;;;;5070900;28;20679;-71
2021/03/22 00:55:40;;;;;;;9.98;3.22;;;;;;;;;;5062486;28;20613;-72
2021/03/22 00:58:06;;;;;;;13.80;3.30;;;;;;;;;;5064390;28;20268;-72
2021/03/22 01:00:35;;;;;;;14.90;3.83;;;;;;;;;;5064902;28;20275;-71
2021/03/22 01:03:01;;;;;;;15.18;4.55;;;;;;;;;;5066934;28;20455;-71
2021/03/22 01:05:27;;;;;;;12.67;3.43;;;;;;;;;;5063468;28;20203;-72
2021/03/22 01:07:53;;;;;;;10.55;3.58;;;;;;;;;;5070686;28;20426;-72
2021/03/22 01:10:22;;;;;;;14.85;4.43;;;;;;;;;;5055060;28;20547;-71
2021/03/22 01:12:48;;;;;;;8.73;3.90;;;;;;;;;;5058008;28;20229;-73
2021/03/22 01:15:14;;;;;;;17.58;4.28;;;;;;;;;;5060507;28;20563;-73
2021/03/22 01:17:40;;;;;;;26.08;4.68;;;;;;;;;;5057408;28;20189;-73
2021/03/22 01:20:09;;;;;;;22.50;4.40;;;;;;;;;;5056602;28;20223;-73
2021/03/22 01:22:35;;;;;;;16.77;4.10;;;;;;;;;;5061594;28;20204;-72
2021/03/22 01:25:01;;;;;;;14.63;3.20;;;;;;;;;;5065937;28;20556;-73
2021/03/22 01:27:27;;;;;;;11.10;3.57;;;;;;;;;;5061686;28;20963;-72
2021/03/22 01:29:53;;;;;;;13.60;5.10;;;;;;;;;;5057417;28;20546;-73
2021/03/22 01:32:19;;;;;;;13.20;3.30;;;;;;;;;;5058949;28;20834;-72
2021/03/22 01:34:45;;;;;;;9.27;3.72;;;;;;;;;;5059781;28;20918;-71
2021/03/22 01:37:11;;;;;;;13.88;3.97;;;;;;;;;;5054852;28;20177;-71
2021/03/22 01:39:38;;;;;;;10.38;3.30;;;;;;;;;;5059503;28;20181;-72
2021/03/22 01:42:04;;;;;;;13.23;3.95;;;;;;;;;;5057590;28;20688;-72
2021/03/22 01:44:30;;;;;;;13.00;3.53;;;;;;;;;;5055023;28;20189;-74
2021/03/22 01:46:58;;;;;;;6.43;3.20;;;;;;;;;;5065084;28;20533;-71
2021/03/22 01:49:26;;;;;;;18.15;5.95;;;;;;;;;;5059581;28;20916;-71
2021/03/22 01:51:52;;;;;;;9.80;3.80;;;;;;;;;;5055657;28;20292;-72
2021/03/22 01:54:18;;;;;;;14.65;3.80;;;;;;;;;;5059344;28;20184;-72
2021/03/22 01:56:51;;;;;;;12.27;3.40;;;;;;;;;;5053939;28;20185;-71
2021/03/22 01:59:19;;;;;;;14.48;3.28;;;;;;;;;;5059548;28;20185;-71
2021/03/22 02:01:48;;;;;;;7.22;3.65;;;;;;;;;;5061654;28;20574;-71
2021/03/22 02:04:15;;;;;;;8.77;3.55;;;;;;;;;;5062961;28;20181;-71
2021/03/22 02:06:41;;;;;;;8.18;3.15;;;;;;;;;;5066500;28;20208;-73
2021/03/22 02:09:07;;;;;;;12.65;3.75;;;;;;;;;;5052865;28;20551;-71
2021/03/22 02:11:35;;;;;;;10.97;3.40;;;;;;;;;;5052162;28;20177;-74
2021/03/22 02:14:03;;;;;;;17.50;4.90;;;;;;;;;;5062200;28;20480;-72
2021/03/22 02:16:34;;;;;;;12.43;3.53;;;;;;;;;;5056739;28;20185;-71
2021/03/22 02:19:15;;;;;;;15.77;3.38;;;;;;;;;;5058402;28;20217;-71
2021/03/22 02:21:41;;;;;;;14.00;3.40;;;;;;;;;;5062683;28;20201;-74
2021/03/22 02:24:26;;;;;;;7.57;4.23;;;;;;;;;;5055593;28;20703;-71
2021/03/22 02:27:08;;;;;;;10.75;3.03;;;;;;;;;;5057516;28;20527;-72
2021/03/22 02:29:53;;;;;;;7.75;3.92;;;;;;;;;;5067512;28;20173;-72
2021/03/22 02:32:37;;;;;;;16.55;5.88;;;;;;;;;;5058594;28;20223;-71
2021/03/22 02:35:09;;;;;;;9.85;3.10;;;;;;;;;;5063796;28;20243;-72
2021/03/22 02:37:45;;;;;;;18.08;3.75;;;;;;;;;;5054132;28;20259;-71
2021/03/22 02:40:25;;;;;;;6.60;2.75;;;;;;;;;;5056595;28;20196;-71
2021/03/22 02:42:52;;;;;;;13.68;3.60;;;;;;;;;;5061295;28;20205;-72
2021/03/22 02:45:23;;;;;;;12.80;4.72;;;;;;;;;;5062660;28;20776;-71
2021/03/22 02:47:49;;;;;;;16.48;4.60;;;;;;;;;;5065767;28;20208;-71
2021/03/22 02:50:17;;;;;;;8.90;3.10;;;;;;;;;;5064519;28;20187;-71
2021/03/22 02:52:49;;;;;;;9.70;3.55;;;;;;;;;;5067415;28;20228;-72
2021/03/22 02:55:27;;;;;;;11.90;3.20;;;;;;;;;;5054473;28;20653;-72
2021/03/22 02:57:54;;;;;;;18.13;3.95;;;;;;;;;;5064854;28;20588;-72
2021/03/22 03:00:23;;;;;;;10.85;3.38;;;;;;;;;;5070526;28;20259;-72
2021/03/22 03:02:49;;;;;;;8.82;2.80;;;;;;;;;;5059434;28;20196;-72
2021/03/22 03:05:21;;;;;;;14.02;4.28;;;;;;;;;;5073448;28;20177;-72
2021/03/22 03:07:47;;;;;;;13.52;3.55;;;;;;;;;;5064169;28;20201;-73
2021/03/22 03:10:14;;;;;;;11.93;3.30;;;;;;;;;;5073025;28;20181;-73
2021/03/22 03:12:40;;;;;;;8.52;3.10;;;;;;;;;;5043060;28;20229;-71
2021/03/22 03:15:08;;;;;;;4.93;2.47;;;;;;;;;;5068089;28;20200;-72
2021/03/22 03:17:35;;;;;;;7.47;3.55;;;;;;;;;;5062653;28;20424;-72
2021/03/22 03:20:01;;;;;;;10.98;4.03;;;;;;;;;;5036357;28;20352;-72
2021/03/22 03:22:27;;;;;;;15.63;4.10;;;;;;;;;;5069343;28;20193;-73
2021/03/22 03:24:53;;;;;;;23.65;4.45;;;;;;;;;;5068141;28;20189;-71
2021/03/22 03:27:19;;;;;;;15.93;3.72;;;;;;;;;;5068810;28;20215;-72
2021/03/22 03:29:45;;;;;;;6.70;3.63;;;;;;;;;;5070843;28;20544;-74
2021/03/22 03:32:13;;;;;;;8.00;2.55;;;;;;;;;;5062490;28;21016;-71
2021/03/22 03:34:39;;;;;;;7.80;3.72;;;;;;;;;;5060810;28;20533;-71
2021/03/22 03:37:05;;;;;;;24.65;4.72;;;;;;;;;;5068704;28;20176;-72
2021/03/22 03:39:31;;;;;;;8.05;3.25;;;;;;;;;;5064650;28;20190;-71
2021/03/22 03:41:57;;;;;;;16.73;4.70;;;;;;;;;;5059855;28;20229;-71
2021/03/22 03:44:23;;;;;;;19.23;5.90;;;;;;;;;;5069215;28;20840;-71
2021/03/22 03:46:49;;;;;;;13.67;4.70;;;;;;;;;;5053473;28;20872;-71
2021/03/22 03:49:15;;;;;;;6.70;3.40;;;;;;;;;;5056901;28;20510;-71
2021/03/22 03:51:41;;;;;;;16.60;5.27;;;;;;;;;;5060752;28;20448;-71
2021/03/22 03:54:08;;;;;;;13.18;5.20;;;;;;;;;;5072516;28;20450;-72
2021/03/22 03:56:34;;;;;;;16.40;3.97;;;;;;;;;;5062520;28;20679;-74
2021/03/22 03:59:00;;;;;;;25.85;4.88;;;;;;;;;;5071138;28;20212;-73
2021/03/22 04:01:27;;;;;;;10.70;3.67;;;;;;;;;;5059535;28;20186;-74
2021/03/22 04:03:53;;;;;;;10.10;4.50;;;;;;;;;;5066376;28;20462;-71
2021/03/22 04:06:21;;;;;;;14.93;4.70;;;;;;;;;;5064231;28;20243;-71
2021/03/22 04:08:48;;;;;;;10.48;3.80;;;;;;;;;;5052564;28;20447;-72
2021/03/22 04:11:16;;;;;;;9.60;4.93;;;;;;;;;;5058451;28;20627;-75
2021/03/22 04:13:42;;;;;;;14.65;5.10;;;;;;;;;;5059209;28;20181;-71
2021/03/22 04:16:09;;;;;;;13.80;6.03;;;;;;;;;;5055499;28;20185;-71
2021/03/22 04:18:36;;;;;;;13.65;5.20;;;;;;;;;;5052804;28;20226;-72
2021/03/22 04:21:03;;;;;;;13.02;4.40;;;;;;;;;;5055444;28;20193;-72
2021/03/22 04:23:29;;;;;;;15.95;4.38;;;;;;;;;;5055741;28;20197;-72
2021/03/22 04:25:55;;;;;;;9.17;4.20;;;;;;;;;;5068659;28;20209;-72
2021/03/22 04:28:21;;;;;;;14.88;4.30;;;;;;;;;;5065291;28;20431;-71
2021/03/22 04:30:47;;;;;;;18.90;5.07;;;;;;;;;;5065805;28;20196;-72
2021/03/22 04:33:13;;;;;;;12.33;5.43;;;;;;;;;;5060281;28;20452;-72
2021/03/22 04:35:39;;;;;;;7.03;3.83;;;;;;;;;;5060322;28;20442;-74
2021/03/22 04:38:05;;;;;;;10.30;4.93;;;;;;;;;;5039780;28;20425;-73
2021/03/22 04:40:31;;;;;;;18.80;6.90;;;;;;;;;;5063192;28;20459;-71
2021/03/22 04:42:57;;;;;;;7.65;3.78;;;;;;;;;;5065133;28;20460;-72
2021/03/22 04:45:26;;;;;;;11.55;4.63;;;;;;;;;;5060322;28;20205;-73
2021/03/22 04:47:52;;;;;;;20.60;5.03;;;;;;;;;;5062478;28;20652;-72
2021/03/22 04:50:19;;;;;;;8.60;4.22;;;;;;;;;;5063693;28;20181;-71
2021/03/22 04:52:45;;;;;;;21.30;5.70;;;;;;;;;;5053634;28;20224;-72
2021/03/22 04:55:11;;;;;;;10.73;4.18;;;;;;;;;;5063959;28;20563;-72
2021/03/22 04:57:38;;;;;;;14.75;4.05;;;;;;;;;;5061932;28;20177;-72
2021/03/22 05:00:06;;;;;;;16.38;5.22;;;;;;;;;;5068149;28;20258;-73
2021/03/22 05:02:32;;;;;;;10.18;5.78;;;;;;;;;;5062696;28;20204;-72
2021/03/22 05:04:58;;;;;;;16.55;4.57;;;;;;;;;;5071247;28;20652;-73
2021/03/22 05:07:24;;;;;;;17.33;5.10;;;;;;;;;;5063457;28;20597;-71
2021/03/22 05:09:50;;;;;;;14.98;4.93;;;;;;;;;;5061061;28;20189;-72
2021/03/22 05:12:16;;;;;;;16.43;5.23;;;;;;;;;;5062058;28;20581;-73
2021/03/22 05:14:42;;;;;;;16.10;6.23;;;;;;;;;;5063958;28;20830;-74
2021/03/22 05:17:08;;;;;;;13.30;4.97;;;;;;;;;;5062496;28;20498;-72
2021/03/22 05:19:35;;;;;;;12.73;5.18;;;;;;;;;;5067714;28;20431;-72
2021/03/22 05:22:01;;;;;;;9.57;4.65;;;;;;;;;;5065578;28;20283;-72
2021/03/22 05:24:27;;;;;;;22.43;6.90;;;;;;;;;;5060495;28;20260;-72
2021/03/22 05:26:53;;;;;;;20.52;6.55;;;;;;;;;;5051679;28;20561;-71
2021/03/22 05:29:23;;;;;;;17.92;5.50;;;;;;;;;;5051747;28;20191;-71
2021/03/22 05:31:49;;;;;;;15.73;5.78;;;;;;;;;;5066433;28;20241;-72
2021/03/22 05:34:15;;;;;;;22.40;5.27;;;;;;;;;;5065847;23;20235;-75
2021/03/22 05:36:41;;;;;;;12.50;5.50;;;;;;;;;;5062261;28;20849;-75
2021/03/22 05:39:07;;;;;;;4.63;3.10;;;;;;;;;;5052050;28;20165;-75
2021/03/22 05:41:39;;;;;;;10.32;4.57;;;;;;;;;;5065293;28;20177;-75
2021/03/22 05:44:32;;;;;;;17.50;6.22;;;;;;;;;;5071705;28;20197;-75
2021/03/22 05:47:02;;;;;;;14.88;5.35;;;;;;;;;;5013778;28;20281;-73
2021/03/22 05:49:30;;;;;;;13.77;6.00;;;;;;;;;;5052853;28;20598;-73
2021/03/22 05:52:15;;;;;;;12.75;6.00;;;;;;;;;;5070582;28;20173;-73
2021/03/22 05:54:59;;;;;;;14.57;5.88;;;;;;;;;;5069919;28;20200;-74
2021/03/22 05:57:25;;;;;;;8.63;5.30;;;;;;;;;;5064091;28;20249;-74
2021/03/22 05:59:57;;;;;;;24.15;7.85;;;;;;;;;;5070688;28;20497;-74
2021/03/22 06:02:26;;;;;;;10.88;5.78;;;;;;;;;;5070847;28;20204;-73
2021/03/22 06:04:53;;;;;;;9.05;4.88;;;;;;;;;;5070727;28;20215;-73
2021/03/22 06:07:21;;;;;;;14.10;4.72;;;;;;;;;;5070559;28;20259;-73
2021/03/22 06:10:00;;;;;;;11.63;4.90;;;;;;;;;;5061840;28;20583;-73
2021/03/22 06:12:29;;;;;;;12.15;5.75;;;;;;;;;;5065491;28;20263;-73
2021/03/22 06:15:01;;;;;;;20.02;6.30;;;;;;;;;;5072019;28;20276;-73
2021/03/22 06:17:43;;;;;;;22.67;6.70;;;;;;;;;;5074814;28;20177;-74
2021/03/22 06:20:30;;;;;;;12.05;6.30;;;;;;;;;;5073966;28;20268;-73
2021/03/22 06:22:59;;;;;;;11.15;7.50;;;;;;;;;;5064125;28;20180;-74
2021/03/22 06:25:30;;;;;;;13.77;6.07;;;;;;;;;;5075157;28;20288;-73
2021/03/22 06:28:00;;;;;;;14.38;8.18;;;;;;;;;;5073752;28;20185;-74
2021/03/22 06:30:26;;;;;;;16.13;6.00;;;;;;;;;;5064339;28;20790;-74
2021/03/22 06:32:54;;;;;;;17.58;7.80;;;;;;;;;;5069594;28;20189;-73
2021/03/22 06:35:23;;;;;;;13.35;6.78;;;;;;;;;;5071981;28;20667;-74
2021/03/22 06:37:49;;;;;;;11.98;6.18;;;;;;;;;;5073469;28;20268;-74
2021/03/22 06:40:27;;;;;;;15.05;6.95;;;;;;;;;;5078408;28;20168;-73
2021/03/22 06:43:11;;;;;;;15.75;5.47;;;;;;;;;;5054502;28;20161;-73
2021/03/22 06:46:01;;;;;;;26.40;6.80;;;;;;;;;;5084290;28;20200;-74
2021/03/22 06:48:29;;;;;;;14.55;6.57;;;;;;;;;;5066669;28;20570;-73
2021/03/22 06:51:15;;;;;;;15.88;6.07;;;;;;;;;;5074365;28;20200;-74
2021/03/22 06:53:51;;;;;;;15.27;6.28;;;;;;;;;;5073520;28;20266;-73
2021/03/22 06:56:17;;;;;;;22.40;6.72;;;;;;;;;;5074405;28;20647;-73
2021/03/22 06:58:43;;;;;;;14.83;6.57;;;;;;;;;;5074115;28;20306;-73
2021/03/22 07:01:21;;;;;;;14.30;7.03;;;;;;;;;;5072535;28;20846;-73
2021/03/22 07:03:48;;;;;;;9.88;6.20;;;;;;;;;;5078842;28;20241;-74
2021/03/22 07:06:15;;;;;;;19.15;7.25;;;;;;;;;;5074205;28;20207;-74
2021/03/22 07:08:41;;;;;;;15.57;8.20;;;;;;;;;;5056072;28;20180;-73
2021/03/22 07:11:09;;;;;;;18.65;7.78;;;;;;;;;;5073638;28;20491;-74
2021/03/22 07:13:35;;;;;;;20.40;8.13;;;;;;;;;;5073161;28;20711;-74
2021/03/22 07:16:24;;;;;;;20.70;8.55;;;;;;;;;;5067679;28;20196;-73
2021/03/22 07:19:06;;;;;;;17.98;8.30;;;;;;;;;;5071908;28;20169;-74
2021/03/22 07:21:32;;;;;;;22.88;7.90;;;;;;;;;;5073727;28;20189;-73
2021/03/22 07:24:08;;;;;;;19.15;8.95;;;;;;;;;;5072387;28;20200;-74
2021/03/22 07:26:37;;;;;;;21.48;9.93;;;;;;;;;;5072599;28;20199;-74
2021/03/22 07:29:06;;;;;;;17.38;9.50;;;;;;;;;;5065407;28;20181;-73
2021/03/22 07:31:47;;;;;;;24.67;11.23;;;;;;;;;;5055654;28;20170;-73
2021/03/22 07:34:32;;;;;;;23.45;11.48;;;;;;;;;;5059207;28;20205;-74
2021/03/22 07:37:16;;;;;;;21.83;10.00;;;;;;;;;;5073725;28;20179;-74
2021/03/22 07:40:03;;;;;;;19.27;8.95;;;;;;;;;;5072967;28;20184;-73
2021/03/22 07:42:36;;;;;;;23.55;11.27;;;;;;;;;;5070361;28;20245;-73
2021/03/22 07:45:06;;;;;;;24.58;12.50;;;;;;;;;;5073549;28;20193;-73
2021/03/22 07:47:38;;;;;;;26.88;13.23;;;;;;;;;;5054846;28;20213;-73
2021/03/22 07:50:21;;;;;;;25.67;14.55;;;;;;;;;;5071426;28;20186;-73
2021/03/22 07:52:56;;;;;;;28.65;14.52;;;;;;;;;;5073168;28;20659;-73
2021/03/22 07:55:34;;;;;;;25.85;16.05;;;;;;;;;;5072683;28;20282;-73
2021/03/22 07:58:19;;;;;;;29.75;17.38;;;;;;;;;;5055050;28;20180;-73
2021/03/22 08:00:50;;;;;;;32.00;17.20;;;;;;;;;;5069373;28;20188;-73
2021/03/22 08:03:22;;;;;;;35.97;17.13;;;;;;;;;;5060344;28;20209;-73
2021/03/22 08:06:07;;;;;;;32.20;17.48;;;;;;;;;;5073142;28;20688;-73
2021/03/22 08:08:52;;;;;;;31.00;19.48;;;;;;;;;;5054907;28;20374;-73
2021/03/22 08:11:21;;;;;;;29.27;16.13;;;;;;;;;;5072756;28;20222;-73
2021/03/22 08:13:52;;;;;;;23.20;15.68;;;;;;;;;;5071866;28;20660;-73
2021/03/22 08:16:36;;;;;;;18.65;14.63;;;;;;;;;;5055545;28;20182;-73
2021/03/22 08:19:01;;;;;;;31.88;16.88;;;;;;;;;;5053234;28;20177;-73
2021/03/22 08:22:08;;;;;;;27.67;18.00;;;;;;;;;;5052658;28;20251;-73
2021/03/22 08:24:56;;;;;;;25.02;15.82;;;;;;;;;;4991647;28;20513;-73
2021/03/22 08:27:26;;;;;;;21.95;14.68;;;;;;;;;;4985134;28;20701;-73
2021/03/22 08:29:55;;;;;;;25.55;13.40;;;;;;;;;;5030485;28;20202;-73
2021/03/22 08:32:31;;;;;;;22.52;12.05;;;;;;;;;;5068999;28;20226;-73
2021/03/22 08:35:02;;;;;;;19.45;10.45;;;;;;;;;;5072404;28;20227;-73
2021/03/22 08:37:44;;;;;;;16.90;8.63;;;;;;;;;;5072274;28;20611;-73
2021/03/22 08:40:28;;;;;;;11.20;7.70;;;;;;;;;;5072244;28;20176;-73
2021/03/22 08:42:59;;;;;;;16.92;6.03;;;;;;;;;;5068831;28;20190;-73
2021/03/22 08:45:29;;;;;;;18.77;7.07;;;;;;;;;;5070747;28;20226;-74
2021/03/22 08:48:18;;;;;;;15.07;6.72;;;;;;;;;;5052273;28;20739;-73
2021/03/22 08:50:44;;;;;;;7.75;5.68;;;;;;;;;;5052178;28;20656;-73
2021/03/22 08:53:10;;;;;;;12.80;6.60;;;;;;;;;;5051863;28;20177;-73
2021/03/22 08:55:44;;;;;;;10.17;5.80;;;;;;;;;;5059718;28;20177;-73
2021/03/22 08:58:29;;;;;;;8.57;6.32;;;;;;;;;;5072071;28;20452;-73
2021/03/22 09:00:56;;;;;;;11.07;5.00;;;;;;;;;;5066276;28;20177;-74
2021/03/22 09:03:30;;;;;;;8.43;4.68;;;;;;;;;;5070138;28;20204;-73
2021/03/22 09:06:17;;;;;;;14.88;4.95;;;;;;;;;;5072000;28;20203;-73
2021/03/22 09:08:53;;;;;;;8.38;4.65;;;;;;;;;;5071911;28;20173;-73
2021/03/22 09:11:29;;;;;;;9.45;5.60;;;;;;;;;;5071595;28;20164;-73
2021/03/22 09:13:59;;;;;;;7.20;5.40;;;;;;;;;;5071725;28;20273;-73
2021/03/22 09:16:25;;;;;;;7.75;5.85;;;;;;;;;;5071496;28;20551;-74
2021/03/22 09:19:06;;;;;;;13.90;5.90;;;;;;;;;;5071716;28;20180;-73
2021/03/22 09:21:32;;;;;;;10.25;5.45;;;;;;;;;;5068749;28;20954;-73
2021/03/22 09:23:58;;;;;;;10.55;7.60;;;;;;;;;;5058109;28;20207;-73
2021/03/22 09:26:43;;;;;;;10.70;7.82;;;;;;;;;;5071247;28;20200;-73
2021/03/22 09:29:32;;;;;;;10.13;7.93;;;;;;;;;;5071610;28;20177;-73
2021/03/22 09:32:02;;;;;;;9.15;7.72;;;;;;;;;;5057686;28;20219;-73
2021/03/22 09:34:37;;;;;;;16.20;9.35;;;;;;;;;;5050739;28;20266;-73
2021/03/22 09:37:22;;;;;;;9.65;6.93;;;;;;;;;;5066903;28;20172;-73
2021/03/22 09:39:49;;;;;;;7.20;6.47;;;;;;;;;;5071471;28;20206;-73
2021/03/22 09:42:17;;;;;;;11.40;6.50;;;;;;;;;;5071066;28;20259;-73
2021/03/22 09:44:55;;;;;;;6.13;5.60;;;;;;;;;;5070561;28;20569;-73
2021/03/22 09:47:23;;;;;;;7.70;5.07;;;;;;;;;;5070361;28;20287;-73
2021/03/22 09:50:01;;;;;;;12.27;3.92;;;;;;;;;;5070598;28;20177;-73
2021/03/22 09:52:32;;;;;;;19.23;4.38;;;;;;;;;;5074407;28;20184;-73
2021/03/22 09:54:59;;;;;;;6.47;5.22;;;;;;;;;;5075403;28;20204;-73
2021/03/22 09:57:39;;;;;;;9.70;4.07;;;;;;;;;;5065937;28;20255;-73
2021/03/22 10:00:11;;;;;;;7.63;3.63;;;;;;;;;;5073844;28;20659;-73
2021/03/22 10:02:54;;;;;;;12.25;4.28;;;;;;;;;;5056384;28;20213;-73
2021/03/22 10:05:29;;;;;;;7.28;4.03;;;;;;;;;;5055253;28;20185;-73
2021/03/22 10:07:55;;;;;;;13.10;6.05;;;;;;;;;;5072908;28;20204;-73
2021/03/22 10:10:39;;;;;;;8.57;4.33;;;;;;;;;;5057407;28;20240;-73
2021/03/22 10:13:16;;;;;;;8.18;3.97;;;;;;;;;;5075095;28;20417;-73
2021/03/22 10:15:48;;;;;;;7.35;4.13;;;;;;;;;;5074722;28;20175;-73
2021/03/22 10:18:17;;;;;;;12.70;3.55;;;;;;;;;;5075252;28;20252;-73
2021/03/22 10:20:45;;;;;;;7.20;3.58;;;;;;;;;;5075085;28;20177;-73
2021/03/22 10:23:29;;;;;;;6.82;4.35;;;;;;;;;;5074965;28;20264;-73
2021/03/22 10:26:05;;;;;;;7.25;3.78;;;;;;;;;;5074561;28;20258;-73
2021/03/22 10:28:31;;;;;;;3.47;2.85;;;;;;;;;;5068210;28;20181;-73
2021/03/22 10:30:57;;;;;;;6.87;4.67;;;;;;;;;;5060263;28;20231;-73
2021/03/22 10:33:23;;;;;;;7.13;4.00;;;;;;;;;;5074516;28;20451;-73
2021/03/22 10:35:54;;;;;;;9.73;3.92;;;;;;;;;;5074793;28;20646;-73
2021/03/22 10:38:25;;;;;;;8.57;4.30;;;;;;;;;;5074866;28;20694;-73
2021/03/22 10:40:50;;;;;;;8.82;4.78;;;;;;;;;;5073110;28;20215;-73
2021/03/22 10:43:25;;;;;;;7.20;4.70;;;;;;;;;;5074042;28;20680;-72
2021/03/22 10:45:51;;;;;;;9.63;4.47;;;;;;;;;;5074494;28;21003;-73
2021/03/22 10:48:20;;;;;;;9.03;4.03;;;;;;;;;;5074660;28;20169;-73
2021/03/22 10:50:46;;;;;;;11.25;4.15;;;;;;;;;;5074610;28;20565;-73
2021/03/22 10:53:14;;;;;;;19.27;5.10;;;;;;;;;;5074280;28;20652;-73
2021/03/22 10:55:41;;;;;;;9.90;4.90;;;;;;;;;;5054837;28;20440;-73
2021/03/22 10:58:10;;;;;;;4.78;3.65;;;;;;;;;;5069556;28;20265;-73
2021/03/22 11:00:41;;;;;;;5.15;4.25;;;;;;;;;;5073172;28;20217;-73
2021/03/22 11:03:08;;;;;;;7.63;4.95;;;;;;;;;;5074026;28;20173;-73
2021/03/22 11:05:44;;;;;;;6.07;4.35;;;;;;;;;;5074304;28;20197;-73
2021/03/22 11:08:29;;;;;;;5.45;4.63;;;;;;;;;;5073107;28;20253;-73
2021/03/22 11:10:59;;;;;;;6.28;3.05;;;;;;;;;;5073574;28;20633;-73
2021/03/22 11:13:27;;;;;;;10.15;3.97;;;;;;;;;;5073593;28;20326;-73
2021/03/22 11:15:53;;;;;;;6.82;3.13;;;;;;;;;;5059677;28;20189;-73
2021/03/22 11:18:20;;;;;;;8.27;4.22;;;;;;;;;;5074226;28;20165;-73
2021/03/22 11:20:51;;;;;;;7.25;3.65;;;;;;;;;;5074251;28;20234;-73
2021/03/22 11:23:26;;;;;;;5.93;4.40;;;;;;;;;;5073744;28;20279;-73
2021/03/22 11:25:53;;;;;;;7.47;4.20;;;;;;;;;;5067290;28;20261;-73
2021/03/22 11:28:19;;;;;;;9.52;5.15;;;;;;;;;;5073503;28;20169;-73
2021/03/22 11:30:54;;;;;;;6.30;3.60;;;;;;;;;;5073367;28;20173;-73
2021/03/22 11:33:23;;;;;;;7.25;3.83;;;;;;;;;;5073184;28;20446;-73
2021/03/22 11:36:02;;;;;;;9.10;6.03;;;;;;;;;;5055877;28;20217;-73
2021/03/22 11:38:32;;;;;;;9.13;4.03;;;;;;;;;;5073839;28;20184;-73
2021/03/22 11:40:58;;;;;;;4.82;3.00;;;;;;;;;;5073455;28;20734;-73
2021/03/22 11:43:24;;;;;;;8.63;2.95;;;;;;;;;;5073186;28;20192;-73
2021/03/22 11:45:50;;;;;;;11.60;4.47;;;;;;;;;;5069127;28;20694;-73
2021/03/22 11:48:22;;;;;;;4.05;2.42;;;;;;;;;;5057200;28;20838;-72
2021/03/22 11:50:59;;;;;;;12.88;2.97;;;;;;;;;;5055563;28;20184;-73
2021/03/22 11:53:25;;;;;;;10.13;3.70;;;;;;;;;;5073004;28;20207;-73
2021/03/22 11:55:53;;;;;;;5.50;2.20;;;;;;;;;;5071387;28;20271;-72
2021/03/22 11:58:39;;;;;;;4.72;2.15;;;;;;;;;;5073154;28;20442;-73
2021/03/22 12:01:12;;;;;;;3.13;2.05;;;;;;;;;;5072953;28;20208;-72
2021/03/22 12:03:38;;;;;;;5.05;1.80;;;;;;;;;;5071682;28;20204;-73
2021/03/22 12:06:05;;;;;;;6.20;2.60;;;;;;;;;;5072412;28;20208;-73
2021/03/22 12:08:37;;;;;;;3.30;2.20;;;;;;;;;;5058618;28;20470;-73
2021/03/22 12:11:08;;;;;;;7.00;3.17;;;;;;;;;;5052879;28;20546;-73
2021/03/22 12:13:34;;;;;;;6.18;2.83;;;;;;;;;;5060507;28;20221;-73
2021/03/22 12:16:01;;;;;;;5.80;3.27;;;;;;;;;;5074045;28;20690;-73
2021/03/22 12:18:31;;;;;;;7.38;2.70;;;;;;;;;;5072791;28;20417;-73
2021/03/22 12:20:57;;;;;;;2.33;2.10;;;;;;;;;;5072815;28;20165;-73
2021/03/22 12:23:23;;;;;;;3.72;2.60;;;;;;;;;;5072043;28;20621;-73
2021/03/22 12:25:50;;;;;;;5.10;2.67;;;;;;;;;;5072233;28;20197;-73
2021/03/22 12:28:16;;;;;;;5.85;2.83;;;;;;;;;;5072462;28;20777;-73
2021/03/22 12:30:42;;;;;;;3.25;2.63;;;;;;;;;;5069522;28;20203;-73
2021/03/22 12:33:18;;;;;;;3.90;2.83;;;;;;;;;;5071217;28;20209;-73
2021/03/22 12:35:44;;;;;;;7.00;2.67;;;;;;;;;;5049527;28;20202;-73
2021/03/22 12:38:10;;;;;;;7.63;2.40;;;;;;;;;;5072261;28;20700;-73
2021/03/22 12:40:36;;;;;;;6.78;3.67;;;;;;;;;;5071881;28;20448;-73
2021/03/22 12:43:02;;;;;;;5.47;2.92;;;;;;;;;;5067781;28;20169;-72
2021/03/22 12:45:30;;;;;;;4.18;2.95;;;;;;;;;;5052796;28;20664;-73
2021/03/22 12:47:56;;;;;;;3.35;2.85;;;;;;;;;;5069792;28;20184;-73
2021/03/22 12:50:30;;;;;;;10.52;3.17;;;;;;;;;;5070589;28;20547;-73
2021/03/22 12:52:57;;;;;;;10.07;3.38;;;;;;;;;;5071533;28;20176;-72
2021/03/22 12:55:24;;;;;;;5.20;2.50;;;;;;;;;;5071818;28;20230;-73
2021/03/22 12:57:50;;;;;;;10.93;3.33;;;;;;;;;;5072045;28;20177;-73
2021/03/22 13:00:17;;;;;;;6.35;3.97;;;;;;;;;;5070262;28;20184;-73
2021/03/22 13:02:46;;;;;;;5.60;2.70;;;;;;;;;;5070173;28;20173;-73
2021/03/22 13:05:16;;;;;;;2.45;1.83;;;;;;;;;;5071089;28;20710;-73
2021/03/22 13:07:42;;;;;;;5.82;2.60;;;;;;;;;;5071687;28;20683;-73
2021/03/22 13:10:08;;;;;;;4.03;2.70;;;;;;;;;;5071745;28;20181;-73
2021/03/22 13:12:35;;;;;;;3.38;2.13;;;;;;;;;;5068697;28;20959;-73
2021/03/22 13:15:01;;;;;;;7.82;2.80;;;;;;;;;;5052459;28;20208;-73
2021/03/22 13:17:28;;;;;;;2.45;2.13;;;;;;;;;;5048092;28;20177;-73
2021/03/22 13:19:54;;;;;;;4.43;2.63;;;;;;;;;;5070029;28;20185;-73
2021/03/22 13:22:21;;;;;;;3.80;2.73;;;;;;;;;;5051561;28;20185;-73
2021/03/22 13:24:47;;;;;;;4.50;2.65;;;;;;;;;;5063583;28;20446;-73
2021/03/22 13:27:15;;;;;;;4.30;2.42;;;;;;;;;;5071263;28;20247;-73
2021/03/22 13:29:42;;;;;;;4.28;2.53;;;;;;;;;;5071010;28;20180;-73
2021/03/22 13:32:08;;;;;;;5.50;2.42;;;;;;;;;;5071075;28;20640;-73
2021/03/22 13:34:34;;;;;;;5.03;3.47;;;;;;;;;;5071445;28;20212;-73
2021/03/22 13:37:01;;;;;;;3.85;2.67;;;;;;;;;;5071256;28;20205;-73
2021/03/22 13:39:27;;;;;;;5.93;2.45;;;;;;;;;;5069750;28;20181;-72
2021/03/22 13:41:52;;;;;;;6.17;2.23;;;;;;;;;;5066325;28;20571;-73
2021/03/22 13:44:18;;;;;;;5.40;2.47;;;;;;;;;;5070962;28;20455;-73
2021/03/22 13:46:45;;;;;;;9.40;2.80;;;;;;;;;;5071254;28;20455;-73
2021/03/22 13:49:11;;;;;;;4.53;2.28;;;;;;;;;;5071558;28;20420;-73
2021/03/22 13:51:41;;;;;;;4.90;2.95;;;;;;;;;;5071031;28;20247;-73
2021/03/22 13:54:10;;;;;;;4.80;2.17;;;;;;;;;;5070699;28;20618;-73
2021/03/22 13:56:36;;;;;;;5.97;2.90;;;;;;;;;;5071166;28;20187;-73
2021/03/22 13:59:02;;;;;;;7.18;2.28;;;;;;;;;;5071625;28;20196;-73
2021/03/22 14:01:28;;;;;;;3.97;2.80;;;;;;;;;;5070426;28;20177;-73
2021/03/22 14:03:54;;;;;;;4.20;2.13;;;;;;;;;;5070671;28;20439;-73
2021/03/22 14:06:20;;;;;;;6.87;2.47;;;;;;;;;;5043531;28;20220;-73
2021/03/22 14:08:46;;;;;;;3.63;2.10;;;;;;;;;;5051797;28;20490;-73
2021/03/22 14:11:13;;;;;;;2.50;2.17;;;;;;;;;;5051683;28;20404;-72
2021/03/22 14:13:39;;;;;;;7.30;2.70;;;;;;;;;;5070984;28;20185;-73
2021/03/22 14:16:05;;;;;;;4.13;2.87;;;;;;;;;;5065212;28;20644;-73
2021/03/22 14:18:31;;;;;;;4.50;2.55;;;;;;;;;;5048872;28;20518;-73
2021/03/22 14:20:58;;;;;;;4.03;2.33;;;;;;;;;;5070818;28;20184;-73
2021/03/22 14:23:28;;;;;;;4.60;2.47;;;;;;;;;;5070878;28;20193;-73
2021/03/22 14:25:54;;;;;;;2.85;2.47;;;;;;;;;;5070754;28;20196;-72
2021/03/22 14:28:20;;;;;;;4.60;2.45;;;;;;;;;;5067163;28;20189;-73
2021/03/22 14:30:47;;;;;;;4.40;2.50;;;;;;;;;;5057139;28;20177;-72
2021/03/22 14:33:14;;;;;;;5.20;2.70;;;;;;;;;;5070691;28;20499;-73
2021/03/22 14:35:40;;;;;;;5.78;3.00;;;;;;;;;;5071392;28;20177;-73
2021/03/22 14:38:06;;;;;;;4.43;2.97;;;;;;;;;;5074932;28;20176;-73
2021/03/22 14:40:32;;;;;;;3.33;2.40;;;;;;;;;;5074245;28;20173;-73
2021/03/22 14:42:58;;;;;;;2.85;1.98;;;;;;;;;;5065938;28;20553;-73
2021/03/22 14:45:27;;;;;;;4.10;2.70;;;;;;;;;;5073620;28;20172;-73
2021/03/22 14:47:53;;;;;;;4.45;2.45;;;;;;;;;;5068822;28;20423;-72
2021/03/22 14:50:21;;;;;;;3.90;2.42;;;;;;;;;;5074523;28;20173;-73
2021/03/22 14:52:47;;;;;;;3.53;2.58;;;;;;;;;;5074223;28;20169;-73